createdAt,value
2018-01-07T00:00:28.837Z,219.87
2018-01-07T00:02:57.304Z,224.95
2018-01-07T00:05:25.044Z,246.57
2018-01-07T00:07:52.849Z,283.25
2018-01-07T00:10:20.519Z,305.83
2018-01-07T00:18:58.041Z,304.58
2018-01-07T00:21:25.692Z,310.08
2018-01-07T00:23:54.432Z,326.90
2018-01-07T00:26:23.274Z,338.35
2018-01-07T00:28:51.857Z,342.48
2018-01-07T00:31:20.318Z,362.10
2018-01-07T00:33:49.411Z,377.52
2018-01-07T00:36:17.074Z,387.45
2018-01-07T00:38:46.574Z,394.15
2018-01-07T00:41:14.208Z,383.98
2018-01-07T00:43:56.576Z,267.48
2018-01-07T00:46:24.470Z,294.80
2018-01-07T00:48:52.098Z,271.10
2018-01-07T00:51:19.704Z,339.77
2018-01-07T00:53:47.314Z,314.02
2018-01-07T00:56:15.670Z,257.65
2018-01-07T00:58:43.395Z,255.87
2018-01-07T01:01:11.122Z,288.15
2018-01-07T01:03:39.048Z,294.05
2018-01-07T01:06:06.837Z,295.40
2018-01-07T01:08:34.642Z,300.62
2018-01-07T01:11:02.216Z,346.20
2018-01-07T01:13:29.855Z,339.08
2018-01-07T01:15:58.201Z,310.10
2018-01-07T01:18:25.894Z,313.95
2018-01-07T01:20:53.703Z,316.35
2018-01-07T01:23:21.306Z,305.60
2018-01-07T01:25:50.073Z,324.45
2018-01-07T01:28:18.180Z,329.55
2018-01-07T01:30:45.824Z,292.42
2018-01-07T01:33:15.075Z,295.98
2018-01-07T01:35:43.073Z,282.15
2018-01-07T01:38:10.704Z,294.52
2018-01-07T01:40:38.313Z,278.17
2018-01-07T01:43:06.102Z,275.25
2018-01-07T01:45:33.728Z,278.27
2018-01-07T01:48:01.356Z,312.98
2018-01-07T01:50:28.981Z,274.62
2018-01-07T01:52:56.621Z,229.57
2018-01-07T01:55:24.239Z,215.43
2018-01-07T01:57:52.345Z,207.87
2018-01-07T02:00:20.093Z,202.70
2018-01-07T02:02:47.726Z,206.35
2018-01-07T02:05:16.038Z,211.98
2018-01-07T02:07:43.618Z,200.93
2018-01-07T02:10:11.265Z,210.02
2018-01-07T02:12:38.889Z,215.30
2018-01-07T02:15:06.480Z,233.63
2018-01-07T02:17:34.332Z,236.52
2018-01-07T02:20:01.916Z,246.40
2018-01-07T02:22:29.762Z,242.48
2018-01-07T02:24:57.553Z,243.88
2018-01-07T02:27:25.358Z,271.70
2018-01-07T02:29:53.051Z,293.40
2018-01-07T02:32:21.065Z,261.62
2018-01-07T02:34:49.263Z,266.67
2018-01-07T02:37:16.864Z,281.50
2018-01-07T02:39:44.552Z,273.90
2018-01-07T02:42:12.168Z,272.27
2018-01-07T02:44:40.619Z,271.25
2018-01-07T02:47:08.258Z,275.67
2018-01-07T02:49:35.836Z,288.48
2018-01-07T02:52:04.431Z,287.48
2018-01-07T02:54:32.094Z,269.02
2018-01-07T02:56:59.769Z,228.75
2018-01-07T02:59:27.405Z,220.52
2018-01-07T03:01:55.168Z,212.85
2018-01-07T03:04:22.971Z,231.55
2018-01-07T03:06:50.619Z,228.02
2018-01-07T03:09:18.271Z,213.50
2018-01-07T03:11:45.907Z,253.57
2018-01-07T03:14:13.558Z,250.30
2018-01-07T03:16:41.218Z,262.33
2018-01-07T03:19:08.868Z,263.98
2018-01-07T03:21:36.454Z,253.25
2018-01-07T03:24:04.248Z,244.52
2018-01-07T03:26:31.878Z,247.07
2018-01-07T03:28:59.744Z,264.40
2018-01-07T03:31:27.488Z,257.12
2018-01-07T03:33:55.152Z,253.20
2018-01-07T03:36:22.682Z,263.60
2018-01-07T03:38:50.585Z,263.98
2018-01-07T03:41:18.183Z,256.42
2018-01-07T03:43:48.187Z,262.98
2018-01-07T03:48:51.296Z,261.35
2018-01-07T03:51:18.966Z,258.63
2018-01-07T03:53:46.617Z,262.88
2018-01-07T03:56:14.227Z,265.67
2018-01-07T03:58:41.854Z,249.80
2018-01-07T04:01:10.033Z,254.38
2018-01-07T04:03:37.698Z,244.85
2018-01-07T04:06:05.386Z,239.07
2018-01-07T04:08:33.059Z,249.90
2018-01-07T04:11:00.694Z,249.07
2018-01-07T04:13:28.277Z,267.75
2018-01-07T04:15:56.914Z,228.18
2018-01-07T04:18:24.785Z,250.57
2018-01-07T04:20:52.437Z,225.07
2018-01-07T04:23:20.196Z,266.77
2018-01-07T04:25:47.817Z,262.90
2018-01-07T04:28:15.427Z,250.68
2018-01-07T04:30:43.298Z,253.52
2018-01-07T04:33:10.874Z,235.82
2018-01-07T04:35:39.128Z,232.18
2018-01-07T04:38:06.851Z,236.02
2018-01-07T04:40:34.418Z,234.98
2018-01-07T04:43:02.306Z,241.43
2018-01-07T04:45:30.108Z,224.02
2018-01-07T04:47:57.752Z,224.25
2018-01-07T04:50:25.349Z,238.93
2018-01-07T04:52:52.932Z,231.68
2018-01-07T04:55:20.675Z,201.60
2018-01-07T04:57:48.346Z,176.18
2018-01-07T05:00:16.029Z,142.43
2018-01-07T05:02:43.963Z,84.55
2018-01-07T05:05:11.658Z,98.25
2018-01-07T05:07:39.555Z,102.95
2018-01-07T05:10:08.056Z,149.18
2018-01-07T05:12:35.844Z,202.87
2018-01-07T05:15:03.481Z,202.27
2018-01-07T05:17:34.164Z,199.45
2018-01-07T05:20:03.898Z,186.48
2018-01-07T05:22:35.113Z,172.07
2018-01-07T05:25:04.283Z,170.50
2018-01-07T05:27:32.084Z,185.68
2018-01-07T05:30:00.426Z,192.15
2018-01-07T05:32:31.268Z,186.15
2018-01-07T05:34:59.136Z,195.27
2018-01-07T05:37:27.200Z,186.15
2018-01-07T05:39:54.812Z,194.98
2018-01-07T05:42:22.488Z,197.43
2018-01-07T05:44:50.056Z,192.23
2018-01-07T05:47:17.683Z,186.70
2018-01-07T05:49:45.893Z,177.00
2018-01-07T05:52:13.651Z,177.40
2018-01-07T05:54:41.580Z,172.25
2018-01-07T05:57:10.113Z,170.20
2018-01-07T05:59:37.879Z,171.25
2018-01-07T06:02:05.458Z,176.68
2018-01-07T06:04:33.065Z,156.50
2018-01-07T06:07:00.729Z,169.10
2018-01-07T06:09:28.301Z,165.43
2018-01-07T06:11:55.970Z,167.95
2018-01-07T06:14:24.577Z,179.90
2018-01-07T06:16:52.264Z,179.40
2018-01-07T06:19:19.928Z,167.07
2018-01-07T06:21:47.714Z,172.90
2018-01-07T06:24:15.835Z,169.65
2018-01-07T06:26:43.568Z,143.07
2018-01-07T06:29:11.523Z,161.48
2018-01-07T06:31:39.149Z,176.23
2018-01-07T06:34:06.758Z,199.40
2018-01-07T06:36:34.490Z,196.82
2018-01-07T06:39:02.148Z,192.48
2018-01-07T06:41:29.777Z,195.00
2018-01-07T06:43:57.361Z,192.30
2018-01-07T06:46:24.985Z,177.97
2018-01-07T06:48:52.661Z,174.70
2018-01-07T06:51:20.290Z,163.67
2018-01-07T06:53:48.007Z,174.43
2018-01-07T06:56:15.684Z,172.07
2018-01-07T06:58:43.335Z,164.67
2018-01-07T07:01:11.016Z,162.20
2018-01-07T07:03:38.673Z,165.60
2018-01-07T07:06:06.477Z,163.43
2018-01-07T07:08:34.302Z,163.30
2018-01-07T07:11:01.965Z,166.23
2018-01-07T07:13:30.542Z,154.80
2018-01-07T07:15:58.145Z,152.63
2018-01-07T07:18:25.866Z,148.40
2018-01-07T07:21:11.243Z,153.03
2018-01-07T07:23:38.912Z,153.37
2018-01-07T07:26:06.551Z,157.47
2018-01-07T07:28:34.312Z,146.23
2018-01-07T07:31:01.975Z,147.33
2018-01-07T07:33:34.671Z,142.83
2018-01-07T07:36:02.989Z,138.17
2018-01-07T07:38:30.803Z,132.87
2018-01-07T07:40:58.651Z,131.37
2018-01-07T07:43:28.082Z,124.90
2018-01-07T07:45:55.751Z,127.63
2018-01-07T07:48:23.624Z,129.83
2018-01-07T07:50:51.264Z,136.13
2018-01-07T07:53:18.925Z,136.90
2018-01-07T07:55:46.707Z,134.53
2018-01-07T07:58:14.324Z,141.17
2018-01-07T08:00:41.983Z,150.13
2018-01-07T08:03:09.570Z,155.70
2018-01-07T08:05:37.172Z,159.97
2018-01-07T08:08:04.868Z,171.97
2018-01-07T08:10:32.866Z,168.13
2018-01-07T08:13:00.558Z,181.90
2018-01-07T08:15:29.065Z,183.37
2018-01-07T08:17:56.789Z,217.23
2018-01-07T08:20:24.509Z,210.50
2018-01-07T08:22:52.490Z,214.87
2018-01-07T08:25:20.231Z,208.23
2018-01-07T08:27:47.862Z,198.90
2018-01-07T08:30:15.539Z,190.33
2018-01-07T08:32:43.447Z,174.07
2018-01-07T08:35:11.137Z,164.40
2018-01-07T08:37:38.801Z,167.70
2018-01-07T08:40:06.426Z,157.90
2018-01-07T08:42:34.229Z,169.53
2018-01-07T08:45:02.103Z,167.10
2018-01-07T08:47:29.901Z,156.13
2018-01-07T08:49:57.661Z,160.50
2018-01-07T08:52:25.278Z,170.03
2018-01-07T08:54:52.842Z,167.10
2018-01-07T08:57:20.655Z,158.80
2018-01-07T08:59:48.353Z,154.53
2018-01-07T09:02:16.096Z,154.77
2018-01-07T09:04:43.716Z,150.67
2018-01-07T09:07:11.450Z,150.07
2018-01-07T09:09:39.745Z,155.77
2018-01-07T09:12:08.484Z,151.90
2018-01-07T09:14:36.037Z,149.10
2018-01-07T09:17:03.627Z,147.17
2018-01-07T09:19:31.293Z,151.90
2018-01-07T09:21:58.912Z,126.50
2018-01-07T09:24:26.629Z,113.00
2018-01-07T09:26:55.359Z,111.37
2018-01-07T09:29:25.025Z,111.67
2018-01-07T09:31:52.729Z,110.10
2018-01-07T09:34:20.538Z,114.70
2018-01-07T09:36:48.128Z,113.67
2018-01-07T09:39:15.932Z,122.07
2018-01-07T09:41:43.499Z,119.80
2018-01-07T09:44:11.083Z,118.60
2018-01-07T09:46:38.686Z,116.13
2018-01-07T09:49:06.348Z,103.23
2018-01-07T09:51:33.971Z,101.90
2018-01-07T09:54:02.101Z,97.20
2018-01-07T09:56:29.665Z,94.50
2018-01-07T09:58:57.242Z,88.90
2018-01-07T10:01:24.858Z,87.00
2018-01-07T10:03:52.494Z,81.53
2018-01-07T10:06:20.676Z,80.50
2018-01-07T10:08:48.282Z,81.90
2018-01-07T10:11:16.181Z,80.20
2018-01-07T10:13:44.231Z,78.40
2018-01-07T10:16:11.884Z,76.47
2018-01-07T10:18:40.577Z,74.17
2018-01-07T10:21:09.176Z,73.27
2018-01-07T10:26:30.605Z,70.60
2018-01-07T10:28:58.693Z,71.40
2018-01-07T10:31:26.376Z,64.37
2018-01-07T10:33:54.184Z,67.97
2018-01-07T10:36:21.797Z,67.30
2018-01-07T10:38:49.354Z,68.33
2018-01-07T10:41:17.909Z,66.00
2018-01-07T10:43:46.627Z,64.87
2018-01-07T10:46:14.319Z,66.60
2018-01-07T10:48:42.794Z,65.87
2018-01-07T10:51:10.458Z,68.20
2018-01-07T10:56:32.327Z,66.83
2018-01-07T10:59:01.174Z,64.27
2018-01-07T11:01:34.256Z,62.47
2018-01-07T11:04:01.867Z,55.07
2018-01-07T11:06:30.323Z,51.30
2018-01-07T11:08:59.449Z,57.07
2018-01-07T11:11:27.168Z,58.10
2018-01-07T11:13:56.193Z,55.70
2018-01-07T11:16:23.875Z,54.40
2018-01-07T11:18:51.531Z,56.30
2018-01-07T11:21:19.331Z,57.77
2018-01-07T11:23:47.079Z,55.57
2018-01-07T11:26:20.825Z,57.90
2018-01-07T11:28:48.583Z,57.93
2018-01-07T11:31:16.295Z,59.67
2018-01-07T11:33:45.491Z,56.77
2018-01-07T11:36:13.109Z,58.77
2018-01-07T11:38:40.692Z,57.93
2018-01-07T11:41:30.044Z,58.10
2018-01-07T11:43:57.965Z,51.90
2018-01-07T11:46:27.712Z,55.50
2018-01-07T11:48:55.531Z,55.37
2018-01-07T11:51:23.277Z,55.90
2018-01-07T11:53:51.315Z,55.10
2018-01-07T11:56:19.088Z,57.57
2018-01-07T11:58:47.557Z,54.83
2018-01-07T12:01:15.451Z,56.30
2018-01-07T12:03:43.765Z,56.73
2018-01-07T12:06:11.467Z,55.07
2018-01-07T12:08:39.096Z,55.57
2018-01-07T12:11:06.749Z,59.07
2018-01-07T12:13:36.467Z,51.80
2018-01-07T12:16:05.054Z,55.10
2018-01-07T12:18:35.364Z,53.93
2018-01-07T12:21:03.322Z,54.10
2018-01-07T12:23:47.321Z,56.87
2018-01-07T12:26:15.099Z,56.10
2018-01-07T12:28:42.704Z,53.73
2018-01-07T12:31:11.641Z,54.07
2018-01-07T12:33:39.419Z,54.27
2018-01-07T12:36:07.020Z,54.80
2018-01-07T12:38:34.627Z,55.53
2018-01-07T12:41:02.643Z,54.03
2018-01-07T12:43:31.560Z,52.77
2018-01-07T12:45:59.607Z,51.07
2018-01-07T12:48:28.029Z,55.87
2018-01-07T12:50:55.587Z,54.47
2018-01-07T12:53:23.266Z,59.27
2018-01-07T12:55:51.145Z,56.03
2018-01-07T12:58:18.742Z,58.87
2018-01-07T13:00:46.378Z,63.40
2018-01-07T13:03:14.002Z,66.33
2018-01-07T13:05:41.769Z,62.50
2018-01-07T13:08:09.433Z,55.20
2018-01-07T13:10:37.174Z,51.40
2018-01-07T13:13:09.079Z,47.77
2018-01-07T13:15:43.115Z,45.40
2018-01-07T13:18:13.847Z,44.53
2018-01-07T13:20:41.733Z,44.83
2018-01-07T13:23:09.698Z,44.00
2018-01-07T13:25:42.222Z,47.17
2018-01-07T13:28:10.063Z,44.87
2018-01-07T13:30:37.961Z,48.20
2018-01-07T13:33:06.291Z,48.60
2018-01-07T13:35:34.780Z,48.87
2018-01-07T13:38:03.691Z,51.43
2018-01-07T13:40:31.361Z,47.00
2018-01-07T13:42:59.017Z,42.17
2018-01-07T13:45:27.104Z,46.67
2018-01-07T13:47:54.747Z,43.60
2018-01-07T13:50:22.597Z,47.50
2018-01-07T13:52:51.785Z,48.00
2018-01-07T13:55:19.507Z,41.40
2018-01-07T13:57:47.075Z,41.70
2018-01-07T14:00:14.918Z,40.90
2018-01-07T14:02:42.581Z,41.83
2018-01-07T14:05:10.272Z,43.73
2018-01-07T14:07:39.682Z,47.90
2018-01-07T14:10:07.277Z,55.60
2018-01-07T14:12:35.113Z,56.00
2018-01-07T14:15:03.061Z,57.07
2018-01-07T14:17:30.698Z,55.63
2018-01-07T14:19:58.430Z,52.00
2018-01-07T14:22:40.720Z,54.10
2018-01-07T14:25:08.401Z,57.97
2018-01-07T14:27:36.162Z,67.67
2018-01-07T14:30:08.000Z,74.33
2018-01-07T14:32:35.718Z,81.67
2018-01-07T14:35:03.257Z,77.17
2018-01-07T14:37:30.897Z,75.17
2018-01-07T14:39:58.513Z,62.50
2018-01-07T14:42:27.219Z,62.73
2018-01-07T14:44:55.314Z,56.23
2018-01-07T14:47:22.954Z,51.07
2018-01-07T14:49:50.644Z,50.00
2018-01-07T14:52:18.329Z,56.40
2018-01-07T14:54:50.830Z,49.47
2018-01-07T14:57:19.447Z,42.67
2018-01-07T14:59:47.024Z,38.93
2018-01-07T15:02:14.616Z,51.40
2018-01-07T15:04:43.038Z,49.93
2018-01-07T15:07:10.645Z,47.93
2018-01-07T15:09:39.518Z,52.67
2018-01-07T15:12:07.079Z,53.97
2018-01-07T15:14:35.026Z,50.40
2018-01-07T15:17:02.619Z,62.70
2018-01-07T15:19:31.235Z,59.00
2018-01-07T15:21:58.865Z,64.63
2018-01-07T15:24:26.854Z,68.13
2018-01-07T15:26:54.840Z,79.97
2018-01-07T15:29:22.477Z,75.33
2018-01-07T15:31:50.074Z,77.17
2018-01-07T15:34:17.796Z,80.40
2018-01-07T15:36:45.520Z,90.87
2018-01-07T15:39:13.226Z,88.83
2018-01-07T15:41:40.845Z,70.27
2018-01-07T15:44:09.370Z,72.47
2018-01-07T15:46:37.585Z,67.73
2018-01-07T15:49:05.319Z,70.17
2018-01-07T15:51:37.933Z,68.83
2018-01-07T15:54:07.339Z,68.17
2018-01-07T15:56:35.130Z,76.27
2018-01-07T15:59:02.810Z,88.30
2018-01-07T16:01:30.719Z,90.30
2018-01-07T16:03:58.583Z,92.33
2018-01-07T16:06:26.276Z,96.57
2018-01-07T16:08:53.908Z,109.10
2018-01-07T16:11:21.987Z,119.13
2018-01-07T16:13:49.762Z,141.60
2018-01-07T16:16:17.479Z,135.90
2018-01-07T16:18:45.412Z,146.03
2018-01-07T16:21:21.306Z,155.87
2018-01-07T16:26:28.631Z,217.40
2018-01-07T16:28:56.858Z,192.93
2018-01-07T16:31:24.664Z,164.17
2018-01-07T16:33:52.923Z,200.40
2018-01-07T16:36:20.685Z,171.17
2018-01-07T16:38:48.434Z,178.77
2018-01-07T16:41:16.019Z,172.77
2018-01-07T16:43:43.650Z,178.30
2018-01-07T16:46:12.844Z,164.13
2018-01-07T16:48:40.402Z,186.53
2018-01-07T16:51:08.045Z,172.40
2018-01-07T16:53:35.961Z,150.40
2018-01-07T16:56:12.059Z,163.43
2018-01-07T16:58:40.381Z,157.53
2018-01-07T17:01:08.281Z,158.60
2018-01-07T17:03:36.166Z,160.43
2018-01-07T17:06:15.322Z,167.17
2018-01-07T17:08:43.149Z,164.60
2018-01-07T17:11:47.871Z,150.53
2018-01-07T17:14:16.018Z,156.07
2018-01-07T17:16:44.652Z,190.67
2018-01-07T17:19:12.471Z,220.27
2018-01-07T17:21:40.173Z,192.37
2018-01-07T17:24:09.231Z,240.13
2018-01-07T17:26:42.784Z,189.50
2018-01-07T17:29:10.464Z,228.07
2018-01-07T17:31:40.127Z,206.87
2018-01-07T17:34:08.290Z,198.43
2018-01-07T17:36:36.866Z,214.80
2018-01-07T17:39:06.432Z,213.23
2018-01-07T17:41:36.578Z,215.67
2018-01-07T17:44:05.556Z,220.67
2018-01-07T17:46:33.215Z,220.00
2018-01-07T17:49:00.912Z,219.20
2018-01-07T17:51:31.551Z,191.17
2018-01-07T17:53:59.973Z,170.07
2018-01-07T17:56:28.184Z,173.60
2018-01-07T17:58:56.189Z,170.40
2018-01-07T18:01:23.921Z,150.70
2018-01-07T18:03:52.091Z,150.57
2018-01-07T18:06:19.742Z,140.13
2018-01-07T18:08:48.348Z,129.70
2018-01-07T18:11:16.652Z,127.07
2018-01-07T18:13:45.824Z,119.27
2018-01-07T18:16:13.443Z,138.10
2018-01-07T18:18:41.755Z,130.57
2018-01-07T18:21:11.881Z,165.73
2018-01-07T18:23:39.852Z,143.50
2018-01-07T18:26:07.645Z,144.43
2018-01-07T18:28:35.648Z,143.43
2018-01-07T18:31:03.320Z,128.73
2018-01-07T18:33:30.995Z,129.67
2018-01-07T18:36:00.099Z,127.13
2018-01-07T18:38:28.700Z,119.07
2018-01-07T18:40:59.113Z,116.57
2018-01-07T18:43:26.959Z,115.10
2018-01-07T18:45:56.648Z,119.37
2018-01-07T18:48:25.154Z,144.10
2018-01-07T18:50:53.630Z,130.47
2018-01-07T18:53:21.838Z,136.30
2018-01-07T18:55:49.593Z,143.47
2018-01-07T18:58:17.329Z,158.10
2018-01-07T19:00:44.969Z,162.43
2018-01-07T19:03:12.643Z,160.00
2018-01-07T19:05:42.498Z,169.43
2018-01-07T19:08:10.157Z,173.23
2018-01-07T19:10:40.774Z,179.83
2018-01-07T19:13:09.936Z,173.27
2018-01-07T19:15:38.929Z,158.30
2018-01-07T19:18:10.781Z,150.60
2018-01-07T19:20:40.036Z,152.53
2018-01-07T19:23:07.688Z,152.00
2018-01-07T19:25:35.382Z,143.27
2018-01-07T19:28:03.114Z,144.10
2018-01-07T19:30:30.797Z,145.47
2018-01-07T19:32:58.758Z,141.63
2018-01-07T19:35:26.874Z,136.57
2018-01-07T19:37:55.244Z,133.20
2018-01-07T19:40:23.071Z,133.07
2018-01-07T19:42:50.801Z,138.33
2018-01-07T19:45:20.916Z,131.33
2018-01-07T19:47:49.933Z,131.17
2018-01-07T19:50:17.877Z,132.87
2018-01-07T19:52:50.169Z,128.50
2018-01-07T19:55:17.833Z,133.13
2018-01-07T19:57:45.470Z,177.40
2018-01-07T20:00:13.610Z,152.93
2018-01-07T20:02:41.424Z,155.00
2018-01-07T20:05:19.849Z,155.37
2018-01-07T20:07:48.431Z,156.05
2018-01-07T20:10:16.169Z,186.67
2018-01-07T20:12:51.320Z,202.83
2018-01-07T20:15:19.965Z,221.37
2018-01-07T20:17:48.518Z,375.37
2018-01-07T20:20:17.450Z,325.97
2018-01-07T20:22:45.141Z,289.10
2018-01-07T20:25:21.280Z,308.08
2018-01-07T20:31:31.132Z,462.98
2018-01-07T20:34:04.740Z,450.25
2018-01-07T20:54:18.227Z,374.20
2018-01-07T20:56:46.007Z,400.05
2018-01-07T20:59:13.982Z,393.73
2018-01-07T21:01:41.638Z,400.48
2018-01-07T21:04:09.269Z,369.92
2018-01-07T21:06:38.941Z,397.20
2018-01-07T21:09:06.698Z,387.75
2018-01-07T21:11:36.796Z,377.83
2018-01-07T21:14:04.414Z,383.02
2018-01-07T21:16:32.227Z,383.23
2018-01-07T21:18:59.786Z,372.47
2018-01-07T21:21:27.404Z,354.83
2018-01-07T21:23:55.577Z,365.95
2018-01-07T21:26:23.134Z,368.73
2018-01-07T21:28:59.631Z,362.83
2018-01-07T21:31:27.329Z,367.35
2018-01-07T21:33:55.815Z,331.25
2018-01-07T21:36:23.589Z,341.27
2018-01-07T21:38:51.628Z,333.23
2018-01-07T21:41:20.452Z,322.90
2018-01-07T21:43:49.314Z,332.05
2018-01-07T21:46:17.869Z,280.25
2018-01-07T21:48:47.017Z,311.08
2018-01-07T21:51:14.698Z,275.05
2018-01-07T21:53:43.130Z,271.30
2018-01-07T21:56:10.838Z,311.83
2018-01-07T21:58:39.223Z,321.20
2018-01-07T22:01:18.779Z,325.87
2018-01-07T22:03:58.247Z,309.98
2018-01-07T22:06:38.374Z,308.45
2018-01-07T22:09:06.861Z,292.98
2018-01-07T22:11:36.320Z,290.67
2018-01-07T22:19:59.545Z,272.52
2018-01-07T22:23:08.291Z,264.30
2018-01-07T22:39:39.808Z,196.18
2018-01-07T22:42:07.461Z,197.77
2018-01-07T22:44:45.166Z,190.57
2018-01-07T22:47:13.873Z,196.48
2018-01-07T22:49:41.598Z,183.02
2018-01-07T22:52:13.843Z,184.07
2018-01-07T22:54:41.760Z,185.02
2018-01-07T22:57:09.408Z,200.10
2018-01-07T22:59:37.196Z,239.38
2018-01-07T23:02:04.953Z,229.15
2018-01-07T23:04:35.584Z,219.02
2018-01-07T23:07:05.730Z,221.45
2018-01-07T23:16:36.522Z,233.85
2018-01-07T23:19:06.111Z,247.05
2018-01-07T23:29:11.423Z,218.60
2018-01-07T23:31:50.541Z,225.32
2018-01-07T23:34:19.214Z,236.45
2018-01-07T23:37:15.990Z,251.65
2018-01-07T23:39:46.819Z,337.30
2018-01-07T23:42:14.979Z,400.00
2018-01-07T23:44:43.558Z,479.08
2018-01-07T23:47:11.579Z,445.52
2018-01-07T23:49:41.059Z,398.90
2018-01-07T23:52:08.744Z,381.73
2018-01-07T23:54:36.340Z,343.48
2018-01-07T23:57:03.977Z,385.20
2018-01-07T23:59:33.457Z,387.08
